AirNav   TITAN Aviation Fuels
 
 498 users online  

CO12 Van Aire Airport
Brighton, Colorado, USA

GOING TO BRIGHTON?


FAA INFORMATION EFFECTIVE 22 APRIL 2021

Location

FAA Identifier: CO12
Lat/Long: 39-59-00.1700N 104-42-16.1200W
39-59.002833N 104-42.268667W
39.9833806,-104.7044778
(estimated)
Elevation: 5055 ft. / 1541 m (estimated)
Variation: 11E (1985)
From city: 5 miles E of BRIGHTON, CO
Time zone: UTC -6 (UTC -7 during Standard Time)
Zip code: 80601

Airport Operations

Airport use: Private use. Permission required prior to landing
Activation date: 06/1970
Control tower: no
ARTCC: DENVER CENTER
FSS: DENVER FLIGHT SERVICE STATION
Attendance: UNATNDD
Wind indicator: yes
Segmented circle: yes
Lights: ACTVT MIRL RY 12/30 - 122.9.

Airport Communications

WX ASOS at DEN (7 nm S): PHONE 303-342-1920
WX AWOS-3 at CFO (14 nm SE): 119.025 (303-261-9104)
WX AWOS-3 at EIK (16 nm W): 133.825 (303-604-4339)
WX AWOS-3 at BJC (20 nm W): PHONE 720-887-8067

Nearby radio navigation aids

VOR radial/distance  VOR name  Freq  Var
DVVr317/6.5MILE HIGH VORTAC114.7008E
DENr341/10.4DENVER VOR/DME117.9008E
FQFr337/18.0FALCON VORTAC116.3011E
BJCr067/20.4JEFFCO VOR/DME115.4011E
GLLr180/32.0GILL VOR/DME114.2013E

Airport Services

Fuel available: 100LL
Airframe service: NONE
Powerplant service: NONE

Runway Information

Runway 12/30

Dimensions: 3700 x 50 ft. / 1128 x 15 m
Surface: asphalt
Runway edge lights: medium intensity
RUNWAY 12  RUNWAY 30
Traffic pattern: leftright
Displaced threshold: 331 ft.294 ft.

Airport Ownership and Management from official FAA records

Ownership: Privately-owned
Owner: VAN AIRE SKYPORT CORP
PO BOX 55
BRIGHTON, CO 80601
Manager: BRANDON JEWETT
PO BOX 55
BRIGHTON, CO 80601
Phone 303-521-3238

Airport Operational Statistics

Aircraft based on the field: 89
Single engine airplanes: 85
Multi engine airplanes: 4
    

Additional Remarks

ARPT IN RESIDENTIAL SUBDIVISION. ROADS IN CLOSE PROXIMITY BOTH ENDS OF RWY.
PRIM USE OF RWY IS FOR HOME OWNERS AT ARPT. PPR FOR USE. CTC VANAIRESKYPORT.ORG FOR WAIVER AND INSTRUCTIONS.
RWY 12/30 SINGLE LGT VASI BOTH RWY APCHS.
TPA 5800 FT.
FOR CD CTC DENVER APCH AT 303-342-1916.

Instrument Procedures

There are no published instrument procedures at CO12.

Some nearby airports with instrument procedures:

KDEN - Denver International Airport (7 nm S)
KCFO - Colorado Air and Space Port Airport (14 nm SE)
KEIK - Erie Municipal Airport (16 nm W)
KBKF - Buckley Air Force Base (17 nm S)
KBJC - Rocky Mountain Metro Airport (20 nm W)
 
Loc | Ops | Rwys | IFR | FBO | Links
Com | Nav | Svcs | Stats | Notes

AirBoss

 
Area around CO12 (Van Aire Airport)
 
Road maps at: MapQuest Bing Google
 
Aerial photo
WARNING: Photo may not be current or correct
Aerial photo of CO12 (Van Aire Airport)
Photo by Brandon Jewett.
Taken in the Summer of 2008

Do you have a better or more recent aerial photo of Van Aire Airport that you would like to share? If so, please send us your photo.

 
Sectional chart

 
Airport distance calculator
Flying to Van Aire Airport? Find the distance to fly.

From to CO12

Sunrise and sunset
Times for 14-May-2021
 Local
(UTC-6)
 Zulu
(UTC)
Morning civil twilight05:1511:15
Sunrise05:4511:45
Sunset20:0502:05
Evening civil twilight20:3502:35

Current date and time
Zulu (UTC)  14-May-2021 09:44:55
Local (UTC-6)  14-May-2021 03:44:55
 
METAR
KDEN 
9nm S 
140853Z 16005KT 10SM FEW130 11/03 A3012 RMK AO2 SLP139 T01060028 57002
KCFO 
14nm SE 
140935Z AUTO 00000KT 10SM CLR 10/04 A3014 RMK AO2 T01020043
KEIK 
16nm W 
140935Z AUTO 00000KT 10SM CLR 08/05 A3014 RMK AO2 T00770051 PWINO
KBKF 
16nm S 
140858Z 17006KT 10SM FEW220 08/03 A3015 RMK AO2A SLP154 T00780027 50003
KBJC 
19nm W 
140935Z AUTO 30009KT 10SM CLR 11/01 A3016 RMK AO2
TAF
KDEN 
9nm S 
140551Z 1406/1512 11008KT P6SM SCT120 FM141000 19006KT P6SM FEW015 FEW120 FM141600 01008KT P6SM FEW080 SCT140 FM142100 09012G20KT P6SM VCTS SCT070 BKN140CB PROB30 1423/1503 VRB20G35KT -TSRA BKN070CB FM150300 12012KT P6SM SCT070 BKN120 FM150700 15008KT P6SM SCT015 BKN120 TEMPO 1509/1512 BKN015
KBKF 
16nm S 
140101Z 1401/1507 VRB06KT 9999 FEW095 QNH3000INS BECMG 1502/1503 03012G18KT 9999 FEW017 QNH3003INS BECMG 1503/1504 VRB06KT 8000 BR BKN009 QNH3007INS TX20/1423Z TN07/1412Z
KBJC 
19nm W 
140606Z 1406/1506 01006KT P6SM SCT120 FM141800 34009KT P6SM FEW080 BKN140 FM142100 34009KT P6SM VCTS SCT080 BKN140CB PROB30 1423/1503 VRB20G35KT -TSRA BKN070CB FM150300 01006KT P6SM SCT070 BKN120
NOTAMs
Click for the latest NOTAMs
NOTAMs are issued by the DoD/FAA and will open in a separate window not controlled by AirNav.

 

 
 

Would you like to see your business listed on this page?

 If your business provides an interesting product or service to pilots, flight crews, aircraft, or users of the Van Aire Airport, you should consider listing it here.  To start the listing process, click on the button below
 
Add a business
 

Other Pages about Van Aire Airport

www.ahico.com/...
 
Update a link
 
Copyright © AirNav, LLC. All rights reserved. Privacy Policy  Contact